Terminal Aerodrome Forecast
Issued by NWS New Orleans/Baton Rouge, LA

Current Version | Previous Version | Text Only | Print | Product List | Glossary On
Versions: 1 2 3 4 5 6 7 8 9 10 11 12 13 14 15 16 17
000
FTUS44 KLIX 031100
TAFBTR
TAF
KBTR 031120Z 0312/0412 00000KT 1/4SM FG OVC003
     FM031600 16007KT P6SM OVC003
     FM031900 17009KT P6SM BKN008
     FM032100 18008KT P6SM BKN025
     FM040000 18006KT 3SM BR BKN015
     FM040300 17005KT 3SM BR OVC003=

USA.gov is the U.S. government's official web portal to all federal, state and local government web resources and services.